Time,TemperatureF,DewpointF,PressureIn,WindDirection,WindDirectionDegrees,WindSpeedMPH,WindSpeedGustMPH,Humidity,HourlyPrecipIn,Conditions,Clouds,dailyrainin,SoftwareType,DateUTC
2013-02-24 00:01:00,40.0,28.8,29.18,ESE,112,5.8,5.8,64,0.00,CLR,,0.00,WeatherDisplay:10.37,2013-02-24 06:01:00,
2013-02-24 00:06:00,40.0,28.8,29.18,East,90,5.0,5.0,64,0.00,CLR,,0.00,WeatherDisplay:10.37,2013-02-24 06:06:00,
2013-02-24 00:11:00,40.0,28.8,29.17,East,90,5.0,5.0,64,0.00,CLR,,0.00,WeatherDisplay:10.37,2013-02-24 06:11:00,
2013-02-24 00:16:00,40.0,28.8,29.17,ESE,112,4.0,4.0,64,0.00,CLR,,0.00,WeatherDisplay:10.37,2013-02-24 06:16:00,
2013-02-24 00:21:00,40.0,28.8,29.18,ESE,112,6.0,6.0,64,0.00,CLR,,0.00,WeatherDisplay:10.37,2013-02-24 06:21:00,
2013-02-24 00:26:00,40.0,29.2,29.18,East,90,4.0,4.0,65,0.00,CLR,,0.00,WeatherDisplay:10.37,2013-02-24 06:26:00,
2013-02-24 00:31:00,40.0,29.2,29.18,SE,135,5.8,5.8,65,0.00,CLR,,0.00,WeatherDisplay:10.37,2013-02-24 06:31:00,
2013-02-24 00:36:00,39.0,28.6,29.18,East,90,4.6,4.6,66,0.00,CLR,,0.00,WeatherDisplay:10.37,2013-02-24 06:36:00,
2013-02-24 00:41:00,39.0,29.3,29.18,ESE,112,4.6,4.6,68,0.00,CLR,,0.00,WeatherDisplay:10.37,2013-02-24 06:41:00,
2013-02-24 00:46:00,39.0,30.0,29.18,ESE,112,5.8,5.8,70,0.00,CLR,,0.00,WeatherDisplay:10.37,2013-02-24 06:46:00,
2013-02-24 00:51:00,39.0,30.4,29.18,SE,135,4.6,4.6,71,0.00,CLR,,0.00,WeatherDisplay:10.37,2013-02-24 06:51:00,
2013-02-24 00:56:00,39.0,30.0,29.18,East,90,3.5,3.5,70,0.00,CLR,,0.00,WeatherDisplay:10.37,2013-02-24 06:56:00,
2013-02-24 01:01:00,39.0,30.4,29.18,East,90,5.8,5.8,71,0.00,CLR,,0.00,WeatherDisplay:10.37,2013-02-24 07:01:00,
2013-02-24 01:06:00,40.0,31.0,29.18,SE,135,5.8,5.8,70,0.00,CLR,,0.00,WeatherDisplay:10.37,2013-02-24 07:06:00,
2013-02-24 01:11:00,40.0,30.6,29.18,ESE,112,5.8,5.8,69,0.00,CLR,,0.00,WeatherDisplay:10.37,2013-02-24 07:11:00,
2013-02-24 01:16:00,40.0,30.3,29.18,ESE,112,6.9,6.9,68,0.00,CLR,,0.00,WeatherDisplay:10.37,2013-02-24 07:16:00,
2013-02-24 01:21:00,40.0,30.3,29.18,ESE,112,7.0,7.0,68,0.00,CLR,,0.00,WeatherDisplay:10.37,2013-02-24 07:21:00,
2013-02-24 01:26:00,40.0,30.3,29.18,SE,135,6.9,6.9,68,0.00,CLR,,0.00,WeatherDisplay:10.37,2013-02-24 07:26:00,
2013-02-24 01:31:00,40.0,29.9,29.18,East,90,7.0,7.0,67,0.00,CLR,,0.00,WeatherDisplay:10.37,2013-02-24 07:31:00,
2013-02-24 01:36:00,40.0,30.3,29.18,ESE,112,5.0,5.0,68,0.00,CLR,,0.00,WeatherDisplay:10.37,2013-02-24 07:36:00,
2013-02-24 01:41:00,40.0,30.6,29.18,East,90,6.0,6.0,69,0.00,CLR,,0.00,WeatherDisplay:10.37,2013-02-24 07:41:00,
2013-02-24 01:46:00,40.0,31.0,29.18,East,90,7.0,7.0,70,0.00,CLR,,0.00,WeatherDisplay:10.37,2013-02-24 07:46:00,
2013-02-24 01:51:00,39.0,30.4,29.18,ESE,112,4.0,4.0,71,0.00,CLR,,0.00,WeatherDisplay:10.37,2013-02-24 07:51:00,
2013-02-24 01:56:00,39.0,30.7,29.17,SSE,157,5.8,5.8,72,0.00,CLR,,0.00,WeatherDisplay:10.37,2013-02-24 07:56:00,
2013-02-24 02:01:00,39.0,30.7,29.16,ENE,67,9.2,9.2,72,0.00,CLR,,0.00,WeatherDisplay:10.37,2013-02-24 08:01:00,
2013-02-24 02:06:00,39.0,31.1,29.16,ESE,112,6.9,6.9,73,0.00,CLR,,0.00,WeatherDisplay:10.37,2013-02-24 08:06:00,
2013-02-24 02:11:00,38.0,30.8,29.16,ESE,112,6.0,6.0,75,0.00,CLR,,0.00,WeatherDisplay:10.37,2013-02-24 08:11:00,
2013-02-24 02:16:00,38.0,30.8,29.15,ESE,112,8.1,8.1,75,0.00,CLR,,0.00,WeatherDisplay:10.37,2013-02-24 08:16:00,
2013-02-24 02:21:00,38.0,31.1,29.15,SE,135,8.1,8.1,76,0.00,CLR,,0.00,WeatherDisplay:10.37,2013-02-24 08:21:00,
2013-02-24 02:26:00,38.0,31.4,29.15,East,90,6.9,6.9,77,0.00,CLR,,0.00,WeatherDisplay:10.37,2013-02-24 08:26:00,
2013-02-24 02:31:00,38.0,31.7,29.15,SE,135,5.8,5.8,78,0.00,CLR,,0.00,WeatherDisplay:10.37,2013-02-24 08:31:00,
2013-02-24 02:36:00,37.0,31.4,29.14,East,90,8.1,8.1,80,0.00,CLR,,0.00,WeatherDisplay:10.37,2013-02-24 08:36:00,
2013-02-24 02:41:00,37.0,31.4,29.14,SSE,157,6.9,6.9,80,0.00,CLR,,0.00,WeatherDisplay:10.37,2013-02-24 08:41:00,
2013-02-24 02:46:00,37.0,31.7,29.14,ESE,112,10.4,10.4,81,0.00,CLR,,0.00,WeatherDisplay:10.37,2013-02-24 08:46:00,
2013-02-24 02:51:00,37.0,31.7,29.14,East,90,8.1,8.1,81,0.00,CLR,,0.00,WeatherDisplay:10.37,2013-02-24 08:51:00,
2013-02-24 02:56:00,37.0,31.7,29.14,ESE,112,5.8,5.8,81,0.00,CLR,,0.00,WeatherDisplay:10.37,2013-02-24 08:56:00,
2013-02-24 03:01:00,37.0,32.0,29.14,ESE,112,7.0,7.0,82,0.00,CLR,,0.00,WeatherDisplay:10.37,2013-02-24 09:01:00,
2013-02-24 03:06:00,36.0,31.6,29.14,ESE,112,5.8,5.8,84,0.00,CLR,,0.00,WeatherDisplay:10.37,2013-02-24 09:06:00,
2013-02-24 03:11:00,36.0,32.2,29.14,East,90,5.8,5.8,86,0.00,CLR,,0.00,WeatherDisplay:10.37,2013-02-24 09:11:00,
2013-02-24 03:16:00,37.0,33.2,29.13,ESE,112,6.9,6.9,86,0.00,CLR,,0.00,WeatherDisplay:10.37,2013-02-24 09:16:00,
2013-02-24 03:21:00,37.0,33.5,29.13,ESE,112,8.1,8.1,87,0.00,CLR,,0.00,WeatherDisplay:10.37,2013-02-24 09:21:00,
2013-02-24 03:26:00,36.0,32.2,29.15,South,180,3.5,3.5,86,0.00,CLR,,0.00,WeatherDisplay:10.37,2013-02-24 09:26:00,
2013-02-24 03:31:00,36.0,32.2,29.15,ESE,112,3.0,3.0,86,0.00,CLR,,0.00,WeatherDisplay:10.37,2013-02-24 09:31:00,
2013-02-24 03:36:00,36.0,32.5,29.15,South,180,3.5,3.7,87,0.00,CLR,,0.00,WeatherDisplay:10.37,2013-02-24 09:36:00,
2013-02-24 03:41:00,36.0,33.1,29.14,SSE,157,4.6,4.6,89,0.00,CLR,,0.00,WeatherDisplay:10.37,2013-02-24 09:41:00,
2013-02-24 03:46:00,35.0,32.1,29.14,East,90,2.3,2.3,89,0.00,CLR,,0.00,WeatherDisplay:10.37,2013-02-24 09:46:00,
2013-02-24 03:51:00,35.0,32.1,29.13,East,90,3.5,3.5,89,0.00,CLR,,0.00,WeatherDisplay:10.37,2013-02-24 09:51:00,
2013-02-24 03:56:00,35.0,31.8,29.13,South,180,3.5,3.5,88,0.00,CLR,,0.00,WeatherDisplay:10.37,2013-02-24 09:56:00,
2013-02-24 04:01:00,35.0,31.8,29.13,SE,135,1.2,1.2,88,0.00,CLR,,0.00,WeatherDisplay:10.37,2013-02-24 10:01:00,
2013-02-24 04:06:00,35.0,31.5,29.13,East,90,3.0,3.0,87,0.00,CLR,,0.00,WeatherDisplay:10.37,2013-02-24 10:06:00,
2013-02-24 04:11:00,35.0,31.5,29.13,East,90,2.3,2.3,87,0.00,CLR,,0.00,WeatherDisplay:10.37,2013-02-24 10:11:00,
2013-02-24 04:16:00,36.0,32.2,29.13,SE,135,2.3,2.3,86,0.00,CLR,,0.00,WeatherDisplay:10.37,2013-02-24 10:16:00,
2013-02-24 04:21:00,35.0,31.5,29.13,East,90,1.2,1.2,87,0.00,CLR,,0.00,WeatherDisplay:10.37,2013-02-24 10:21:00,
2013-02-24 04:26:00,35.0,31.2,29.13,SSE,157,1.2,1.2,86,0.00,CLR,,0.00,WeatherDisplay:10.37,2013-02-24 10:26:00,
2013-02-24 04:31:00,35.0,31.2,29.13,SSE,157,2.3,2.4,86,0.00,CLR,,0.00,WeatherDisplay:10.37,2013-02-24 10:31:00,
2013-02-24 04:36:00,35.0,31.2,29.13,SE,135,1.2,1.2,86,0.00,CLR,,0.00,WeatherDisplay:10.37,2013-02-24 10:36:00,
2013-02-24 04:41:00,35.0,30.9,29.13,East,90,1.2,1.2,85,0.00,CLR,,0.00,WeatherDisplay:10.37,2013-02-24 10:41:00,
2013-02-24 04:46:00,36.0,31.9,29.13,East,90,4.6,4.6,85,0.00,CLR,,0.00,WeatherDisplay:10.37,2013-02-24 10:46:00,
2013-02-24 04:51:00,36.0,31.6,29.13,ESE,112,3.0,3.0,84,0.00,CLR,,0.00,WeatherDisplay:10.37,2013-02-24 10:51:00,
2013-02-24 04:56:00,36.0,31.3,29.13,South,180,3.5,3.5,83,0.00,CLR,,0.00,WeatherDisplay:10.37,2013-02-24 10:56:00,
2013-02-24 05:01:00,36.0,31.3,29.13,SSE,157,2.3,2.3,83,0.00,CLR,,0.00,WeatherDisplay:10.37,2013-02-24 11:01:00,
2013-02-24 05:06:00,35.0,30.4,29.13,ESE,112,3.0,3.0,83,0.00,CLR,,0.00,WeatherDisplay:10.37,2013-02-24 11:06:00,
2013-02-24 05:12:00,35.0,30.7,29.13,ESE,112,2.0,2.0,84,0.00,CLR,,0.00,WeatherDisplay:10.37,2013-02-24 11:12:00,
2013-02-24 05:17:00,35.0,30.7,29.13,ESE,112,2.3,2.3,84,0.00,CLR,,0.00,WeatherDisplay:10.37,2013-02-24 11:17:00,
2013-02-24 05:22:00,35.0,30.7,29.13,ESE,112,3.0,3.0,84,0.00,CLR,,0.00,WeatherDisplay:10.37,2013-02-24 11:22:00,
2013-02-24 05:27:00,35.0,30.7,29.13,SE,135,2.0,2.0,84,0.00,CLR,,0.00,WeatherDisplay:10.37,2013-02-24 11:27:00,
2013-02-24 05:32:00,36.0,31.6,29.13,SSE,157,3.5,3.5,84,0.00,CLR,,0.00,WeatherDisplay:10.37,2013-02-24 11:32:00,
2013-02-24 05:37:00,36.0,31.6,29.13,East,90,5.0,5.0,84,0.00,CLR,,0.00,WeatherDisplay:10.37,2013-02-24 11:37:00,
2013-02-24 05:42:00,36.0,31.3,29.13,SE,135,3.5,3.5,83,0.00,CLR,,0.00,WeatherDisplay:10.37,2013-02-24 11:42:00,
2013-02-24 05:47:00,36.0,31.0,29.13,East,90,3.5,3.5,82,0.00,CLR,,0.00,WeatherDisplay:10.37,2013-02-24 11:47:00,
2013-02-24 05:52:00,36.0,31.0,29.14,East,90,4.0,4.0,82,0.00,CLR,,0.00,WeatherDisplay:10.37,2013-02-24 11:52:00,
2013-02-24 05:57:00,37.0,32.0,29.13,East,90,4.0,4.0,82,0.00,CLR,,0.00,WeatherDisplay:10.37,2013-02-24 11:57:00,
2013-02-24 06:02:00,37.0,32.0,29.14,East,90,5.0,5.0,82,0.00,CLR,,0.00,WeatherDisplay:10.37,2013-02-24 12:02:00,
2013-02-24 06:07:00,37.0,32.0,29.14,East,90,3.5,3.5,82,0.00,CLR,,0.00,WeatherDisplay:10.37,2013-02-24 12:07:00,
2013-02-24 06:12:00,37.0,32.0,29.14,ESE,112,3.5,3.5,82,0.00,CLR,,0.00,WeatherDisplay:10.37,2013-02-24 12:12:00,
2013-02-24 06:17:00,37.0,31.4,29.14,ESE,112,1.2,1.2,80,0.00,CLR,,0.00,WeatherDisplay:10.37,2013-02-24 12:17:00,
2013-02-24 06:22:00,37.0,32.0,29.15,ESE,112,3.5,3.5,82,0.00,CLR,,0.00,WeatherDisplay:10.37,2013-02-24 12:22:00,
2013-02-24 06:27:00,37.0,32.3,29.15,East,90,3.5,3.5,83,0.00,CLR,,0.00,WeatherDisplay:10.37,2013-02-24 12:27:00,
2013-02-24 06:32:00,37.0,32.6,29.15,ESE,112,4.6,4.6,84,0.00,CLR,,0.00,WeatherDisplay:10.37,2013-02-24 12:32:00,
2013-02-24 06:37:00,37.0,32.6,29.15,ESE,112,5.0,5.0,84,0.00,CLR,,0.00,WeatherDisplay:10.37,2013-02-24 12:37:00,
2013-02-24 06:42:00,37.0,32.6,29.15,East,90,3.5,3.5,84,0.00,CLR,,0.00,WeatherDisplay:10.37,2013-02-24 12:42:00,
2013-02-24 06:47:00,37.0,32.9,29.15,East,90,4.6,4.6,85,0.00,CLR,,0.00,WeatherDisplay:10.37,2013-02-24 12:47:00,
2013-02-24 06:52:00,37.0,32.9,29.15,ESE,112,3.5,3.5,85,0.00,CLR,,0.00,WeatherDisplay:10.37,2013-02-24 12:52:00,
2013-02-24 06:57:00,37.0,33.2,29.15,East,90,5.8,5.8,86,0.00,CLR,,0.00,WeatherDisplay:10.37,2013-02-24 12:57:00,
2013-02-24 07:02:00,37.0,33.2,29.15,East,90,2.3,2.3,86,0.00,CLR,,0.00,WeatherDisplay:10.37,2013-02-24 13:02:00,
2013-02-24 07:07:00,37.0,33.2,29.15,East,90,5.8,5.8,86,0.00,CLR,,0.00,WeatherDisplay:10.37,2013-02-24 13:07:00,
2013-02-24 07:12:00,37.0,33.2,29.15,SSE,157,6.0,6.0,86,0.00,CLR,,0.00,WeatherDisplay:10.37,2013-02-24 13:12:00,
2013-02-24 07:17:00,36.0,31.9,29.15,ESE,112,2.0,2.0,85,0.00,CLR,,0.00,WeatherDisplay:10.37,2013-02-24 13:17:00,
2013-02-24 07:22:00,36.0,32.2,29.15,South,180,3.5,3.5,86,0.00,CLR,,0.00,WeatherDisplay:10.37,2013-02-24 13:22:00,
2013-02-24 07:27:00,36.0,32.5,29.15,ESE,112,2.3,2.3,87,0.00,CLR,,0.00,WeatherDisplay:10.37,2013-02-24 13:27:00,
2013-02-24 07:32:00,36.0,32.5,29.16,South,180,3.5,3.5,87,0.00,CLR,,0.00,WeatherDisplay:10.37,2013-02-24 13:32:00,
2013-02-24 07:37:00,36.0,32.8,29.15,SE,135,2.3,2.3,88,0.00,CLR,,0.00,WeatherDisplay:10.37,2013-02-24 13:37:00,
2013-02-24 07:42:00,37.0,34.1,29.16,East,90,5.8,5.8,89,0.00,CLR,,0.00,WeatherDisplay:10.37,2013-02-24 13:42:00,
2013-02-24 07:47:00,37.0,33.5,29.16,ESE,112,4.6,4.6,87,0.00,CLR,,0.00,WeatherDisplay:10.37,2013-02-24 13:47:00,
2013-02-24 07:52:00,38.0,34.5,29.16,South,180,3.5,3.5,87,0.00,CLR,,0.00,WeatherDisplay:10.37,2013-02-24 13:52:00,
2013-02-24 07:57:00,39.0,34.9,29.16,East,90,4.6,4.6,85,0.00,CLR,,0.00,WeatherDisplay:10.37,2013-02-24 13:57:00,
2013-02-24 08:02:00,40.0,35.3,29.17,SSE,157,3.5,3.5,83,0.00,CLR,,0.00,WeatherDisplay:10.37,2013-02-24 14:02:00,
2013-02-24 08:07:00,41.0,35.6,29.17,SSE,157,3.5,3.5,81,0.00,CLR,,0.00,WeatherDisplay:10.37,2013-02-24 14:07:00,
2013-02-24 08:12:00,41.0,35.6,29.17,SSE,157,3.0,3.0,81,0.00,CLR,,0.00,WeatherDisplay:10.37,2013-02-24 14:12:00,
2013-02-24 08:17:00,42.0,36.6,29.18,SSE,157,5.8,5.8,81,0.00,CLR,,0.00,WeatherDisplay:10.37,2013-02-24 14:17:00,
2013-02-24 08:22:00,43.0,37.6,29.18,South,180,4.0,4.0,81,0.00,CLR,,0.00,WeatherDisplay:10.37,2013-02-24 14:22:00,
2013-02-24 08:27:00,45.0,38.2,29.18,SE,135,4.6,4.6,77,0.00,CLR,,0.00,WeatherDisplay:10.37,2013-02-24 14:27:00,
2013-02-24 08:32:00,46.0,38.2,29.19,SSE,157,4.6,4.6,74,0.00,CLR,,0.00,WeatherDisplay:10.37,2013-02-24 14:32:00,
2013-02-24 08:38:00,47.0,39.5,29.19,SSE,157,4.6,4.6,75,0.00,CLR,,0.00,WeatherDisplay:10.37,2013-02-24 14:38:00,
2013-02-24 08:43:00,48.0,39.8,29.19,East,90,3.5,3.5,73,0.00,CLR,,0.00,WeatherDisplay:10.37,2013-02-24 14:43:00,
2013-02-24 08:48:00,49.0,38.9,29.20,East,90,5.8,5.8,68,0.00,CLR,,0.00,WeatherDisplay:10.37,2013-02-24 14:48:00,
2013-02-24 08:53:00,50.0,39.5,29.19,South,180,6.9,6.9,67,0.00,CLR,,0.00,WeatherDisplay:10.37,2013-02-24 14:53:00,
2013-02-24 08:58:00,50.0,39.5,29.20,SSE,157,5.8,5.8,67,0.00,CLR,,0.00,WeatherDisplay:10.37,2013-02-24 14:58:00,
2013-02-24 09:03:00,51.0,40.0,29.20,South,180,7.0,7.0,66,0.00,CLR,,0.00,WeatherDisplay:10.37,2013-02-24 15:03:00,
2013-02-24 09:08:00,51.0,39.2,29.20,South,180,10.0,10.0,64,0.00,CLR,,0.00,WeatherDisplay:10.37,2013-02-24 15:08:00,
2013-02-24 09:13:00,51.0,38.8,29.20,South,180,5.8,5.8,63,0.00,CLR,,0.00,WeatherDisplay:10.37,2013-02-24 15:13:00,
2013-02-24 09:18:00,52.0,39.4,29.20,South,180,7.0,7.0,62,0.00,CLR,,0.00,WeatherDisplay:10.37,2013-02-24 15:18:00,
2013-02-24 09:23:00,52.0,39.4,29.20,South,180,6.0,6.0,62,0.00,CLR,,0.00,WeatherDisplay:10.37,2013-02-24 15:23:00,
2013-02-24 09:28:00,53.0,39.9,29.20,SSE,157,8.0,8.0,61,0.00,CLR,,0.00,WeatherDisplay:10.37,2013-02-24 15:28:00,
2013-02-24 09:33:00,54.0,40.0,29.21,South,180,6.0,6.0,59,0.00,CLR,,0.00,WeatherDisplay:10.37,2013-02-24 15:33:00,
2013-02-24 09:38:00,55.0,40.9,29.21,South,180,11.5,11.5,59,0.00,CLR,,0.00,WeatherDisplay:10.37,2013-02-24 15:38:00,
2013-02-24 09:43:00,56.0,41.4,29.21,South,180,6.9,6.9,58,0.00,CLR,,0.00,WeatherDisplay:10.37,2013-02-24 15:43:00,
2013-02-24 09:48:00,56.0,41.4,29.21,South,180,5.8,5.8,58,0.00,CLR,,0.00,WeatherDisplay:10.37,2013-02-24 15:48:00,
2013-02-24 09:53:00,57.0,41.4,29.21,SSE,157,10.4,10.4,56,0.00,CLR,,0.00,WeatherDisplay:10.37,2013-02-24 15:53:00,
2013-02-24 09:58:00,57.0,41.4,29.21,South,180,8.0,8.0,56,0.00,CLR,,0.00,WeatherDisplay:10.37,2013-02-24 15:58:00,
2013-02-24 10:03:00,58.0,41.9,29.21,SE,135,6.9,6.9,55,0.00,CLR,,0.00,WeatherDisplay:10.37,2013-02-24 16:03:00,
2013-02-24 10:08:00,58.0,41.9,29.21,SSE,157,3.5,3.5,55,0.00,CLR,,0.00,WeatherDisplay:10.37,2013-02-24 16:08:00,
2013-02-24 10:13:00,59.0,41.9,29.21,SE,135,6.9,6.9,53,0.00,CLR,,0.00,WeatherDisplay:10.37,2013-02-24 16:13:00,
2013-02-24 10:18:00,59.0,41.9,29.21,SE,135,6.9,6.9,53,0.00,CLR,,0.00,WeatherDisplay:10.37,2013-02-24 16:18:00,
2013-02-24 10:23:00,59.0,42.4,29.21,SSE,157,6.0,6.0,54,0.00,CLR,,0.00,WeatherDisplay:10.37,2013-02-24 16:23:00,
2013-02-24 10:28:00,59.0,42.4,29.21,SSW,202,9.2,9.2,54,0.00,CLR,,0.00,WeatherDisplay:10.37,2013-02-24 16:28:00,
2013-02-24 10:33:00,60.0,43.3,29.21,South,180,6.9,6.9,54,0.00,CLR,,0.00,WeatherDisplay:10.37,2013-02-24 16:33:00,
2013-02-24 10:38:00,60.0,42.3,29.21,SSE,157,10.4,10.4,52,0.00,CLR,,0.00,WeatherDisplay:10.37,2013-02-24 16:38:00,
2013-02-24 10:43:00,61.0,43.2,29.21,South,180,6.0,6.0,52,0.00,CLR,,0.00,WeatherDisplay:10.37,2013-02-24 16:43:00,
2013-02-24 10:48:00,61.0,42.7,29.21,ESE,112,10.4,10.4,51,0.00,CLR,,0.00,WeatherDisplay:10.37,2013-02-24 16:48:00,
2013-02-24 10:53:00,62.0,43.1,29.21,SSE,157,5.8,5.8,50,0.00,CLR,,0.00,WeatherDisplay:10.37,2013-02-24 16:53:00,
2013-02-24 10:58:00,62.0,43.1,29.21,SE,135,9.2,9.2,50,0.00,CLR,,0.00,WeatherDisplay:10.37,2013-02-24 16:58:00,
2013-02-24 11:03:00,63.0,43.5,29.21,SSE,157,5.8,5.8,49,0.00,CLR,,0.00,WeatherDisplay:10.37,2013-02-24 17:03:00,
2013-02-24 11:08:00,63.0,43.5,29.21,South,180,8.1,8.1,49,0.00,CLR,,0.00,WeatherDisplay:10.37,2013-02-24 17:08:00,
2013-02-24 11:13:00,63.0,43.5,29.21,ESE,112,6.9,6.9,49,0.00,CLR,,0.00,WeatherDisplay:10.37,2013-02-24 17:13:00,
2013-02-24 11:18:00,63.0,43.0,29.20,South,180,6.0,6.0,48,0.00,CLR,,0.00,WeatherDisplay:10.37,2013-02-24 17:18:00,
2013-02-24 11:23:00,63.0,43.0,29.20,SSE,157,10.4,10.4,48,0.00,CLR,,0.00,WeatherDisplay:10.37,2013-02-24 17:23:00,
2013-02-24 11:28:00,63.0,43.0,29.20,East,90,9.2,9.2,48,0.00,CLR,,0.00,WeatherDisplay:10.37,2013-02-24 17:28:00,
2013-02-24 11:33:00,64.0,43.4,29.19,SSE,157,6.9,6.9,47,0.00,CLR,,0.00,WeatherDisplay:10.37,2013-02-24 17:33:00,
2013-02-24 11:38:00,64.0,43.4,29.19,SE,135,6.9,6.9,47,0.00,CLR,,0.00,WeatherDisplay:10.37,2013-02-24 17:38:00,
2013-02-24 11:43:00,64.0,42.8,29.19,South,180,6.0,6.0,46,0.00,CLR,,0.00,WeatherDisplay:10.37,2013-02-24 17:43:00,
2013-02-24 11:48:00,64.0,42.2,29.19,South,180,5.8,5.8,45,0.00,CLR,,0.00,WeatherDisplay:10.37,2013-02-24 17:48:00,
2013-02-24 11:53:00,64.0,41.6,29.19,SE,135,7.0,7.0,44,0.00,CLR,,0.00,WeatherDisplay:10.37,2013-02-24 17:53:00,
2013-02-24 11:58:00,65.0,42.5,29.19,South,180,6.9,6.9,44,0.00,CLR,,0.00,WeatherDisplay:10.37,2013-02-24 17:58:00,
2013-02-24 12:03:00,65.0,41.3,29.19,South,180,8.1,8.1,42,0.00,CLR,,0.00,WeatherDisplay:10.37,2013-02-24 18:03:00,
2013-02-24 12:08:00,65.0,42.5,29.18,South,180,6.0,6.0,44,0.00,CLR,,0.00,WeatherDisplay:10.37,2013-02-24 18:08:00,
2013-02-24 12:13:00,66.0,42.2,29.18,SSE,157,9.2,9.2,42,0.00,CLR,,0.00,WeatherDisplay:10.37,2013-02-24 18:13:00,
2013-02-24 12:18:00,66.0,42.2,29.18,SE,135,7.0,7.0,42,0.00,CLR,,0.00,WeatherDisplay:10.37,2013-02-24 18:18:00,
2013-02-24 12:23:00,66.0,41.6,29.17,SE,135,8.1,8.1,41,0.00,CLR,,0.00,WeatherDisplay:10.37,2013-02-24 18:23:00,
2013-02-24 12:28:00,66.0,42.9,29.17,SE,135,9.2,9.2,43,0.00,CLR,,0.00,WeatherDisplay:10.37,2013-02-24 18:28:00,
2013-02-24 12:33:00,66.0,42.2,29.17,ENE,67,12.0,12.0,42,0.00,CLR,,0.00,WeatherDisplay:10.37,2013-02-24 18:33:00,
2013-02-24 12:38:00,66.0,42.2,29.17,South,180,5.0,5.0,42,0.00,CLR,,0.00,WeatherDisplay:10.37,2013-02-24 18:38:00,
2013-02-24 12:43:00,66.0,42.9,29.16,ENE,67,4.6,4.6,43,0.00,CLR,,0.00,WeatherDisplay:10.37,2013-02-24 18:43:00,
2013-02-24 12:48:00,67.0,42.5,29.16,SSW,202,4.6,4.6,41,0.00,CLR,,0.00,WeatherDisplay:10.37,2013-02-24 18:48:00,
2013-02-24 12:53:00,67.0,42.5,29.16,East,90,7.0,7.0,41,0.00,CLR,,0.00,WeatherDisplay:10.37,2013-02-24 18:53:00,
2013-02-24 12:58:00,67.0,43.1,29.15,SE,135,6.9,6.9,42,0.00,CLR,,0.00,WeatherDisplay:10.37,2013-02-24 18:58:00,
2013-02-24 13:03:00,67.0,41.9,29.15,ESE,112,7.0,7.0,40,0.00,CLR,,0.00,WeatherDisplay:10.37,2013-02-24 19:03:00,
2013-02-24 13:08:00,67.0,42.5,29.15,ESE,112,11.5,11.5,41,0.00,CLR,,0.00,WeatherDisplay:10.37,2013-02-24 19:08:00,
2013-02-24 13:13:00,66.0,41.0,29.14,SSE,157,4.6,4.6,40,0.00,CLR,,0.00,WeatherDisplay:10.37,2013-02-24 19:13:00,
2013-02-24 13:18:00,67.0,42.5,29.14,South,180,8.0,8.0,41,0.00,CLR,,0.00,WeatherDisplay:10.37,2013-02-24 19:18:00,
2013-02-24 13:23:00,67.0,41.9,29.14,SE,135,10.4,10.4,40,0.00,CLR,,0.00,WeatherDisplay:10.37,2013-02-24 19:23:00,
2013-02-24 13:28:00,67.0,42.5,29.13,SE,135,10.4,10.4,41,0.00,CLR,,0.00,WeatherDisplay:10.37,2013-02-24 19:28:00,
2013-02-24 13:33:00,67.0,40.5,29.13,SSE,157,4.6,4.6,38,0.00,CLR,,0.00,WeatherDisplay:10.37,2013-02-24 19:33:00,
2013-02-24 13:38:00,68.0,42.1,29.12,East,90,6.0,6.0,39,0.00,CLR,,0.00,WeatherDisplay:10.37,2013-02-24 19:38:00,
2013-02-24 13:43:00,67.0,39.9,29.12,ESE,112,5.8,6.9,37,0.00,CLR,,0.00,WeatherDisplay:10.37,2013-02-24 19:43:00,
2013-02-24 13:48:00,68.0,40.7,29.12,East,90,10.4,10.4,37,0.00,CLR,,0.00,WeatherDisplay:10.37,2013-02-24 19:48:00,
2013-02-24 13:53:00,68.0,40.7,29.12,SSE,157,6.9,6.9,37,0.00,CLR,,0.00,WeatherDisplay:10.37,2013-02-24 19:53:00,
2013-02-24 13:58:00,68.0,40.0,29.11,SE,135,7.0,7.0,36,0.00,CLR,,0.00,WeatherDisplay:10.37,2013-02-24 19:58:00,
2013-02-24 14:03:00,68.0,39.3,29.11,ESE,112,9.2,9.2,35,0.00,CLR,,0.00,WeatherDisplay:10.37,2013-02-24 20:03:00,
2013-02-24 14:08:00,68.0,38.6,29.11,East,90,6.9,6.9,34,0.00,CLR,,0.00,WeatherDisplay:10.37,2013-02-24 20:08:00,
2013-02-24 14:13:00,68.0,39.3,29.11,South,180,10.0,10.0,35,0.00,CLR,,0.00,WeatherDisplay:10.37,2013-02-24 20:13:00,
2013-02-24 14:18:00,69.0,39.4,29.10,SSW,202,5.8,6.1,34,0.00,CLR,,0.00,WeatherDisplay:10.37,2013-02-24 20:18:00,
2013-02-24 14:23:00,69.0,39.4,29.10,South,180,6.0,6.0,34,0.00,CLR,,0.00,WeatherDisplay:10.37,2013-02-24 20:23:00,
2013-02-24 14:29:00,69.0,39.4,29.10,South,180,11.5,11.5,34,0.00,CLR,,0.00,WeatherDisplay:10.37,2013-02-24 20:29:00,
2013-02-24 14:33:00,69.0,38.7,29.09,ESE,112,11.5,11.5,33,0.00,CLR,,0.00,WeatherDisplay:10.37,2013-02-24 20:33:00,
2013-02-24 14:39:00,70.0,40.3,29.09,ESE,112,6.0,6.0,34,0.00,CLR,,0.00,WeatherDisplay:10.37,2013-02-24 20:39:00,
2013-02-24 14:44:00,70.0,40.3,29.09,NE,45,6.9,6.9,34,0.00,CLR,,0.00,WeatherDisplay:10.37,2013-02-24 20:44:00,
2013-02-24 14:49:00,70.0,38.8,29.09,SW,225,5.8,5.8,32,0.00,CLR,,0.00,WeatherDisplay:10.37,2013-02-24 20:49:00,
2013-02-24 14:54:00,70.0,38.8,29.09,South,180,12.0,12.0,32,0.00,CLR,,0.00,WeatherDisplay:10.37,2013-02-24 20:54:00,
2013-02-24 14:59:00,70.0,38.8,29.09,SSE,157,11.5,11.5,32,0.00,CLR,,0.00,WeatherDisplay:10.37,2013-02-24 20:59:00,
2013-02-24 15:04:00,70.0,38.8,29.08,East,90,5.8,5.8,32,0.00,CLR,,0.00,WeatherDisplay:10.37,2013-02-24 21:04:00,
2013-02-24 15:09:00,70.0,38.8,29.08,ESE,112,5.0,5.3,32,0.00,CLR,,0.00,WeatherDisplay:10.37,2013-02-24 21:09:00,
2013-02-24 15:14:00,70.0,38.0,29.09,South,180,10.4,10.4,31,0.00,CLR,,0.00,WeatherDisplay:10.37,2013-02-24 21:14:00,
2013-02-24 15:19:00,69.0,36.3,29.08,East,90,8.1,8.1,30,0.00,CLR,,0.00,WeatherDisplay:10.37,2013-02-24 21:19:00,
2013-02-24 15:24:00,68.0,37.8,29.08,SE,135,9.2,9.2,33,0.00,CLR,,0.00,WeatherDisplay:10.37,2013-02-24 21:24:00,
2013-02-24 15:29:00,68.0,37.0,29.07,SSE,157,5.0,5.0,32,0.00,CLR,,0.00,WeatherDisplay:10.37,2013-02-24 21:29:00,
2013-02-24 15:34:00,67.0,36.1,29.07,SSE,157,9.2,9.2,32,0.00,CLR,,0.00,WeatherDisplay:10.37,2013-02-24 21:34:00,
2013-02-24 15:39:00,67.0,36.9,29.07,NE,45,10.4,10.4,33,0.00,CLR,,0.00,WeatherDisplay:10.37,2013-02-24 21:39:00,
2013-02-24 15:44:00,68.0,37.0,29.06,East,90,4.6,4.6,32,0.00,CLR,,0.00,WeatherDisplay:10.37,2013-02-24 21:44:00,
2013-02-24 15:49:00,68.0,36.2,29.05,South,180,9.2,9.2,31,0.00,CLR,,0.00,WeatherDisplay:10.37,2013-02-24 21:49:00,
2013-02-24 15:54:00,69.0,36.3,29.06,ESE,112,6.0,6.0,30,0.00,CLR,,0.00,WeatherDisplay:10.37,2013-02-24 21:54:00,
2013-02-24 15:59:00,69.0,36.3,29.05,East,90,4.6,4.6,30,0.00,CLR,,0.00,WeatherDisplay:10.37,2013-02-24 21:59:00,
2013-02-24 16:04:00,69.0,36.3,29.05,SSE,157,6.9,6.9,30,0.00,CLR,,0.00,WeatherDisplay:10.37,2013-02-24 22:04:00,
2013-02-24 16:09:00,69.0,36.3,29.05,SE,135,11.5,11.5,30,0.00,CLR,,0.00,WeatherDisplay:10.37,2013-02-24 22:09:00,
2013-02-24 16:14:00,69.0,36.3,29.05,South,180,11.0,11.0,30,0.00,CLR,,0.00,WeatherDisplay:10.37,2013-02-24 22:14:00,
2013-02-24 16:19:00,69.0,35.4,29.04,SE,135,8.1,8.1,29,0.00,CLR,,0.00,WeatherDisplay:10.37,2013-02-24 22:19:00,
2013-02-24 16:24:00,69.0,36.3,29.04,ENE,67,9.2,9.2,30,0.00,CLR,,0.00,WeatherDisplay:10.37,2013-02-24 22:24:00,
2013-02-24 16:29:00,68.0,35.4,29.04,East,90,7.0,7.0,30,0.00,CLR,,0.00,WeatherDisplay:10.37,2013-02-24 22:29:00,
2013-02-24 16:34:00,69.0,35.4,29.04,SE,135,6.9,6.9,29,0.00,CLR,,0.00,WeatherDisplay:10.37,2013-02-24 22:34:00,
2013-02-24 16:39:00,69.0,36.3,29.04,SE,135,4.6,4.6,30,0.00,CLR,,0.00,WeatherDisplay:10.37,2013-02-24 22:39:00,
2013-02-24 16:44:00,69.0,36.3,29.04,ESE,112,5.8,5.8,30,0.00,CLR,,0.00,WeatherDisplay:10.37,2013-02-24 22:44:00,
2013-02-24 16:49:00,69.0,36.3,29.04,East,90,10.4,10.4,30,0.00,CLR,,0.00,WeatherDisplay:10.37,2013-02-24 22:49:00,
2013-02-24 16:54:00,68.0,36.2,29.04,SE,135,8.1,8.1,31,0.00,CLR,,0.00,WeatherDisplay:10.37,2013-02-24 22:54:00,
2013-02-24 16:59:00,68.0,36.2,29.04,East,90,9.2,9.2,31,0.00,CLR,,0.00,WeatherDisplay:10.37,2013-02-24 22:59:00,
2013-02-24 17:04:00,68.0,37.0,29.04,South,180,3.5,3.5,32,0.00,CLR,,0.00,WeatherDisplay:10.37,2013-02-24 23:04:00,
2013-02-24 17:09:00,68.0,37.0,29.04,South,180,11.0,11.0,32,0.00,CLR,,0.00,WeatherDisplay:10.37,2013-02-24 23:09:00,
2013-02-24 17:14:00,68.0,37.0,29.04,SSE,157,2.3,2.3,32,0.00,CLR,,0.00,WeatherDisplay:10.37,2013-02-24 23:14:00,
2013-02-24 17:19:00,68.0,37.0,29.04,SSE,157,4.0,4.0,32,0.00,CLR,,0.00,WeatherDisplay:10.37,2013-02-24 23:19:00,
2013-02-24 17:24:00,68.0,38.6,29.04,ESE,112,2.3,2.3,34,0.00,CLR,,0.00,WeatherDisplay:10.37,2013-02-24 23:24:00,
2013-02-24 17:29:00,67.0,37.7,29.04,South,180,5.0,5.0,34,0.00,CLR,,0.00,WeatherDisplay:10.37,2013-02-24 23:29:00,
2013-02-24 17:34:00,66.0,36.8,29.04,South,180,6.0,6.0,34,0.00,CLR,,0.00,WeatherDisplay:10.37,2013-02-24 23:34:00,
2013-02-24 17:39:00,66.0,36.8,29.04,South,180,5.0,5.0,34,0.00,CLR,,0.00,WeatherDisplay:10.37,2013-02-24 23:39:00,
2013-02-24 17:44:00,65.0,37.4,29.04,SSE,157,5.8,5.8,36,0.00,CLR,,0.00,WeatherDisplay:10.37,2013-02-24 23:44:00,
2013-02-24 17:49:00,65.0,38.1,29.04,SE,135,3.5,3.7,37,0.00,CLR,,0.00,WeatherDisplay:10.37,2013-02-24 23:49:00,
2013-02-24 17:54:00,64.0,37.2,29.04,ESE,112,3.5,3.5,37,0.00,CLR,,0.00,WeatherDisplay:10.37,2013-02-24 23:54:00,
2013-02-24 17:59:00,64.0,37.9,29.04,SE,135,3.5,3.5,38,0.00,CLR,,0.00,WeatherDisplay:10.37,2013-02-24 23:59:00,
2013-02-24 18:04:00,64.0,37.9,29.03,SE,135,2.3,2.3,38,0.00,CLR,,0.00,WeatherDisplay:10.37,2013-02-25 00:04:00,
2013-02-24 18:09:00,63.0,37.0,29.04,SE,135,1.2,1.2,38,0.00,CLR,,0.00,WeatherDisplay:10.37,2013-02-25 00:09:00,
2013-02-24 18:14:00,63.0,37.0,29.04,SSW,202,5.8,5.8,38,0.00,CLR,,0.00,WeatherDisplay:10.37,2013-02-25 00:14:00,
2013-02-24 18:19:00,62.0,37.4,29.04,East,90,4.0,4.0,40,0.00,CLR,,0.00,WeatherDisplay:10.37,2013-02-25 00:19:00,
2013-02-24 18:24:00,62.0,37.4,29.04,East,90,1.2,1.2,40,0.00,CLR,,0.00,WeatherDisplay:10.37,2013-02-25 00:24:00,
2013-02-24 18:29:00,61.0,37.1,29.04,East,90,3.5,3.5,41,0.00,CLR,,0.00,WeatherDisplay:10.37,2013-02-25 00:29:00,
2013-02-24 18:34:00,61.0,37.7,29.04,SE,135,3.5,3.5,42,0.00,CLR,,0.00,WeatherDisplay:10.37,2013-02-25 00:34:00,
2013-02-24 18:39:00,60.0,37.4,29.03,East,90,2.3,2.3,43,0.00,CLR,,0.00,WeatherDisplay:10.37,2013-02-25 00:39:00,
2013-02-24 18:44:00,60.0,37.4,29.03,East,90,4.6,4.6,43,0.00,CLR,,0.00,WeatherDisplay:10.37,2013-02-25 00:44:00,
2013-02-24 18:49:00,60.0,37.4,29.03,ESE,112,4.6,4.6,43,0.00,CLR,,0.00,WeatherDisplay:10.37,2013-02-25 00:49:00,
2013-02-24 18:54:00,60.0,37.4,29.03,East,90,4.6,4.6,43,0.00,CLR,,0.00,WeatherDisplay:10.37,2013-02-25 00:54:00,
2013-02-24 18:59:00,60.0,36.8,29.03,ESE,112,6.0,6.0,42,0.00,CLR,,0.00,WeatherDisplay:10.37,2013-02-25 00:59:00,
2013-02-24 19:04:00,60.0,37.4,29.02,East,90,5.8,5.8,43,0.00,CLR,,0.00,WeatherDisplay:10.37,2013-02-25 01:04:00,
2013-02-24 19:09:00,60.0,37.4,29.02,East,90,6.9,6.9,43,0.00,CLR,,0.00,WeatherDisplay:10.37,2013-02-25 01:09:00,
2013-02-24 19:14:00,60.0,37.4,29.01,ENE,67,5.0,5.0,43,0.00,CLR,,0.00,WeatherDisplay:10.37,2013-02-25 01:14:00,
2013-02-24 19:19:00,59.0,37.1,29.01,East,90,5.8,5.8,44,0.00,CLR,,0.00,WeatherDisplay:10.37,2013-02-25 01:19:00,
2013-02-24 19:24:00,59.0,37.1,29.01,East,90,9.2,9.2,44,0.00,CLR,,0.00,WeatherDisplay:10.37,2013-02-25 01:24:00,
2013-02-24 19:29:00,58.0,36.2,29.01,SE,135,5.8,5.8,44,0.00,CLR,,0.00,WeatherDisplay:10.37,2013-02-25 01:29:00,
2013-02-24 19:34:00,58.0,36.8,29.00,ESE,112,8.1,8.1,45,0.00,CLR,,0.00,WeatherDisplay:10.37,2013-02-25 01:34:00,
2013-02-24 19:39:00,58.0,37.3,29.00,East,90,4.6,4.6,46,0.00,CLR,,0.00,WeatherDisplay:10.37,2013-02-25 01:39:00,
2013-02-24 19:45:00,57.0,36.4,29.00,ESE,112,4.6,4.6,46,0.00,CLR,,0.00,WeatherDisplay:10.37,2013-02-25 01:45:00,
2013-02-24 19:50:00,57.0,37.0,29.00,East,90,6.0,6.0,47,0.00,CLR,,0.00,WeatherDisplay:10.37,2013-02-25 01:50:00,
2013-02-24 19:55:00,57.0,37.0,29.00,ENE,67,3.5,3.5,47,0.00,CLR,,0.00,WeatherDisplay:10.37,2013-02-25 01:55:00,
2013-02-24 20:00:00,57.0,37.5,29.00,East,90,4.0,4.0,48,0.00,CLR,,0.00,WeatherDisplay:10.37,2013-02-25 02:00:00,
2013-02-24 20:05:00,56.0,36.6,29.00,ESE,112,5.8,5.8,48,0.00,CLR,,0.00,WeatherDisplay:10.37,2013-02-25 02:05:00,
2013-02-24 20:10:00,56.0,37.1,28.99,ESE,112,6.0,6.0,49,0.00,CLR,,0.00,WeatherDisplay:10.37,2013-02-25 02:10:00,
2013-02-24 20:15:00,57.0,38.0,28.99,ESE,112,5.8,5.8,49,0.00,CLR,,0.00,WeatherDisplay:10.37,2013-02-25 02:15:00,
2013-02-24 20:20:00,57.0,38.0,28.99,East,90,6.0,6.0,49,0.00,CLR,,0.00,WeatherDisplay:10.37,2013-02-25 02:20:00,
2013-02-24 20:25:00,57.0,38.0,29.00,ESE,112,5.8,5.8,49,0.00,CLR,,0.00,WeatherDisplay:10.37,2013-02-25 02:25:00,
2013-02-24 20:30:00,57.0,38.0,29.00,East,90,5.8,5.8,49,0.00,CLR,,0.00,WeatherDisplay:10.37,2013-02-25 02:30:00,
2013-02-24 20:35:00,57.0,38.0,29.00,East,90,5.8,5.8,49,0.00,CLR,,0.00,WeatherDisplay:10.37,2013-02-25 02:35:00,
2013-02-24 20:40:00,57.0,38.0,29.00,SE,135,7.0,7.0,49,0.00,CLR,,0.00,WeatherDisplay:10.37,2013-02-25 02:40:00,
2013-02-24 20:45:00,57.0,38.0,29.00,ESE,112,3.5,3.5,49,0.00,CLR,,0.00,WeatherDisplay:10.37,2013-02-25 02:45:00,
2013-02-24 20:50:00,57.0,38.0,29.01,ESE,112,5.8,5.8,49,0.00,CLR,,0.00,WeatherDisplay:10.37,2013-02-25 02:50:00,
2013-02-24 20:55:00,57.0,38.0,29.01,East,90,5.0,5.0,49,0.00,CLR,,0.00,WeatherDisplay:10.37,2013-02-25 02:55:00,
2013-02-24 21:00:00,57.0,37.5,29.01,ESE,112,4.6,4.6,48,0.00,CLR,,0.00,WeatherDisplay:10.37,2013-02-25 03:00:00,
2013-02-24 21:05:00,57.0,37.5,29.01,East,90,5.8,5.8,48,0.00,CLR,,0.00,WeatherDisplay:10.37,2013-02-25 03:05:00,
2013-02-24 21:10:00,57.0,38.0,29.01,East,90,8.1,8.1,49,0.00,CLR,,0.00,WeatherDisplay:10.37,2013-02-25 03:10:00,
2013-02-24 21:15:00,57.0,38.0,29.01,ESE,112,4.6,4.6,49,0.00,CLR,,0.00,WeatherDisplay:10.37,2013-02-25 03:15:00,
2013-02-24 21:20:00,57.0,38.0,29.01,NE,45,5.8,5.8,49,0.00,CLR,,0.00,WeatherDisplay:10.37,2013-02-25 03:20:00,
2013-02-24 21:25:00,57.0,38.0,29.00,ESE,112,4.0,4.0,49,0.00,CLR,,0.00,WeatherDisplay:10.37,2013-02-25 03:25:00,
2013-02-24 21:30:00,57.0,38.5,29.01,ENE,67,4.0,4.0,50,0.00,CLR,,0.00,WeatherDisplay:10.37,2013-02-25 03:30:00,
2013-02-24 21:35:00,57.0,38.0,29.01,SE,135,6.9,6.9,49,0.00,CLR,,0.00,WeatherDisplay:10.37,2013-02-25 03:35:00,
2013-02-24 21:40:00,57.0,38.0,29.01,East,90,5.8,5.8,49,0.00,CLR,,0.00,WeatherDisplay:10.37,2013-02-25 03:40:00,
2013-02-24 21:45:00,57.0,38.5,29.01,East,90,9.0,9.0,50,0.00,CLR,,0.00,WeatherDisplay:10.37,2013-02-25 03:45:00,
2013-02-24 21:50:00,57.0,38.0,29.00,ESE,112,6.0,6.0,49,0.00,CLR,,0.00,WeatherDisplay:10.37,2013-02-25 03:50:00,
2013-02-24 21:55:00,57.0,38.5,29.00,SE,135,7.0,7.0,50,0.00,CLR,,0.00,WeatherDisplay:10.37,2013-02-25 03:55:00,
2013-02-24 22:00:00,57.0,38.5,29.00,ESE,112,8.1,8.1,50,0.00,CLR,,0.00,WeatherDisplay:10.37,2013-02-25 04:00:00,
2013-02-24 22:05:00,57.0,39.0,29.00,SE,135,9.0,9.0,51,0.00,CLR,,0.00,WeatherDisplay:10.37,2013-02-25 04:05:00,
2013-02-24 22:10:00,57.0,38.5,29.00,SSW,202,3.5,3.5,50,0.00,CLR,,0.00,WeatherDisplay:10.37,2013-02-25 04:10:00,
2013-02-24 22:15:00,57.0,39.0,28.99,East,90,8.0,8.0,51,0.00,CLR,,0.00,WeatherDisplay:10.37,2013-02-25 04:15:00,
2013-02-24 22:20:00,57.0,39.0,28.99,ESE,112,6.9,6.9,51,0.00,CLR,,0.00,WeatherDisplay:10.37,2013-02-25 04:20:00,
2013-02-24 22:25:00,57.0,39.0,28.99,ENE,67,8.1,8.1,51,0.00,CLR,,0.00,WeatherDisplay:10.37,2013-02-25 04:25:00,
2013-02-24 22:30:00,57.0,39.0,28.99,ESE,112,6.0,6.0,51,0.00,CLR,,0.00,WeatherDisplay:10.37,2013-02-25 04:30:00,
2013-02-24 22:35:00,57.0,39.5,28.99,SE,135,6.9,6.9,52,0.00,CLR,,0.00,WeatherDisplay:10.37,2013-02-25 04:35:00,
2013-02-24 22:40:00,57.0,40.0,28.99,ESE,112,9.2,9.2,53,0.00,CLR,,0.00,WeatherDisplay:10.37,2013-02-25 04:40:00,
2013-02-24 22:45:00,56.0,39.6,28.99,East,90,6.0,6.0,54,0.00,CLR,,0.00,WeatherDisplay:10.37,2013-02-25 04:45:00,
2013-02-24 22:50:00,56.0,39.6,28.99,SE,135,3.5,3.5,54,0.00,CLR,,0.00,WeatherDisplay:10.37,2013-02-25 04:50:00,
2013-02-24 22:55:00,56.0,39.6,28.98,East,90,4.6,4.6,54,0.00,CLR,,0.00,WeatherDisplay:10.37,2013-02-25 04:55:00,
2013-02-24 23:00:00,56.0,39.6,28.97,ESE,112,9.2,9.2,54,0.00,CLR,,0.00,WeatherDisplay:10.37,2013-02-25 05:00:00,
2013-02-24 23:01:00,56.0,40.1,28.97,East,90,9.2,9.2,55,0.00,CLR,,0.00,WeatherDisplay:10.37,2013-02-25 05:01:00,
2013-02-24 23:06:00,56.0,39.6,28.97,East,90,6.9,6.9,54,0.00,CLR,,0.00,WeatherDisplay:10.37,2013-02-25 05:06:00,
2013-02-24 23:11:00,56.0,40.1,28.96,SSE,157,6.9,6.9,55,0.00,CLR,,0.00,WeatherDisplay:10.37,2013-02-25 05:11:00,
2013-02-24 23:16:00,56.0,40.1,28.95,ENE,67,9.2,9.2,55,0.00,CLR,,0.00,WeatherDisplay:10.37,2013-02-25 05:16:00,
2013-02-24 23:21:00,55.0,39.6,28.95,SE,135,4.6,4.6,56,0.00,CLR,,0.00,WeatherDisplay:10.37,2013-02-25 05:21:00,
2013-02-24 23:26:00,55.0,40.5,28.95,SSE,157,6.9,6.9,58,0.00,CLR,,0.00,WeatherDisplay:10.37,2013-02-25 05:26:00,
2013-02-24 23:31:00,55.0,40.5,28.95,East,90,6.0,6.0,58,0.00,CLR,,0.00,WeatherDisplay:10.37,2013-02-25 05:31:00,
2013-02-24 23:36:00,55.0,40.5,28.95,ENE,67,6.9,6.9,58,0.00,CLR,,0.00,WeatherDisplay:10.37,2013-02-25 05:36:00,
2013-02-24 23:41:00,55.0,40.0,28.93,East,90,10.4,10.4,57,0.00,CLR,,0.00,WeatherDisplay:10.37,2013-02-25 05:41:00,
2013-02-24 23:46:00,54.0,39.5,28.93,East,90,5.8,5.8,58,0.00,CLR,,0.00,WeatherDisplay:10.37,2013-02-25 05:46:00,
2013-02-24 23:51:00,54.0,39.5,28.91,ESE,112,6.0,6.0,58,0.00,CLR,,0.00,WeatherDisplay:10.37,2013-02-25 05:51:00,
2013-02-24 23:56:00,54.0,39.5,28.91,ESE,112,6.9,6.9,58,0.00,CLR,,0.00,WeatherDisplay:10.37,2013-02-25 05:56:00,